Time;durP1;ratioP1;P1;durP2;ratioP2;P2;SDS_P1;SDS_P2;PMS_P1;PMS_P2;Temp;Humidity;BMP_temperature;BMP_pressure;BME280_temperature;BME280_humidity;BME280_pressure;Samples;Min_cycle;Max_cycle;Signal;HPM_P1;HPM_P2
2024/02/27 00:02:47;;;;;;;15.05;9.68;;;;;;;;;;10052450;28;20464;-74
2024/02/27 00:07:41;;;;;;;7.68;6.57;;;;;;;;;;10049834;28;20831;-73
2024/02/27 00:12:36;;;;;;;12.80;7.82;;;;;;;;;;10065153;28;20477;-73
2024/02/27 00:17:30;;;;;;;9.65;6.97;;;;;;;;;;10065564;28;20088;-73
2024/02/27 00:22:25;;;;;;;6.30;5.70;;;;;;;;;;10061532;28;20468;-73
2024/02/27 00:27:19;;;;;;;31.90;12.02;;;;;;;;;;10065929;28;20088;-73
2024/02/27 00:32:13;;;;;;;95.50;22.83;;;;;;;;;;10071192;28;20057;-74
2024/02/27 00:37:07;;;;;;;23.90;17.35;;;;;;;;;;10072405;28;20501;-74
2024/02/27 00:42:02;;;;;;;18.45;14.30;;;;;;;;;;10065122;28;20050;-73
2024/02/27 00:46:56;;;;;;;25.45;13.40;;;;;;;;;;10070476;28;20054;-73
2024/02/27 00:51:50;;;;;;;16.88;10.20;;;;;;;;;;10071896;28;20077;-73
2024/02/27 00:56:44;;;;;;;37.38;13.00;;;;;;;;;;10060865;28;20057;-73
2024/02/27 01:01:38;;;;;;;31.38;12.48;;;;;;;;;;10069510;28;20049;-74
2024/02/27 01:06:32;;;;;;;14.43;9.73;;;;;;;;;;10053865;28;20057;-74
2024/02/27 01:11:26;;;;;;;20.85;11.50;;;;;;;;;;10068995;28;20045;-74
2024/02/27 01:16:20;;;;;;;20.42;10.40;;;;;;;;;;10067648;28;20041;-75
2024/02/27 01:21:14;;;;;;;65.43;15.15;;;;;;;;;;10045211;28;20054;-73
2024/02/27 01:26:09;;;;;;;23.23;11.43;;;;;;;;;;10059176;28;20099;-73
2024/02/27 01:31:05;;;;;;;22.98;11.32;;;;;;;;;;10070751;28;20045;-73
2024/02/27 01:35:59;;;;;;;33.42;12.63;;;;;;;;;;10057333;28;20056;-75
2024/02/27 01:40:53;;;;;;;34.45;12.88;;;;;;;;;;10069587;28;20488;-73
2024/02/27 01:45:47;;;;;;;16.13;11.23;;;;;;;;;;10057576;28;20049;-74
2024/02/27 01:50:45;;;;;;;15.95;10.30;;;;;;;;;;10069053;28;20069;-74
2024/02/27 01:55:39;;;;;;;28.23;13.27;;;;;;;;;;10066146;28;20426;-76
2024/02/27 02:00:33;;;;;;;16.48;11.25;;;;;;;;;;10062757;28;20556;-75
2024/02/27 02:05:29;;;;;;;31.88;12.68;;;;;;;;;;10055702;28;20099;-75
2024/02/27 02:10:23;;;;;;;17.05;9.15;;;;;;;;;;10067201;28;20054;-74
2024/02/27 02:15:17;;;;;;;11.80;7.47;;;;;;;;;;10070168;28;20417;-74
2024/02/27 02:20:17;;;;;;;19.98;8.55;;;;;;;;;;10067015;28;20107;-74
2024/02/27 02:25:12;;;;;;;18.55;7.72;;;;;;;;;;10064273;28;20140;-74
2024/02/27 02:30:11;;;;;;;12.82;6.20;;;;;;;;;;10064992;28;20053;-74
2024/02/27 02:35:05;;;;;;;10.93;6.97;;;;;;;;;;10058136;28;20096;-73
2024/02/27 02:40:01;;;;;;;5.75;5.13;;;;;;;;;;10065169;28;22222;-73
2024/02/27 02:44:55;;;;;;;9.25;4.88;;;;;;;;;;10065493;28;20579;-74
2024/02/27 02:49:49;;;;;;;4.00;3.63;;;;;;;;;;10063985;28;20146;-74
2024/02/27 02:54:44;;;;;;;4.50;4.10;;;;;;;;;;10065539;28;20045;-74
2024/02/27 02:59:38;;;;;;;6.45;4.50;;;;;;;;;;10065213;28;20107;-74
2024/02/27 03:04:32;;;;;;;6.40;4.47;;;;;;;;;;10064596;28;20382;-74
2024/02/27 03:09:26;;;;;;;5.63;5.07;;;;;;;;;;10056927;28;20049;-73
2024/02/27 03:14:20;;;;;;;2.70;2.50;;;;;;;;;;10064245;28;20148;-73
2024/02/27 03:19:13;;;;;;;3.28;2.60;;;;;;;;;;10060679;28;20055;-74
2024/02/27 03:24:08;;;;;;;3.38;3.08;;;;;;;;;;10061577;28;20065;-74
2024/02/27 03:29:02;;;;;;;4.60;3.00;;;;;;;;;;10063714;28;20053;-74
2024/02/27 03:33:56;;;;;;;2.72;2.53;;;;;;;;;;10062341;28;20752;-74
2024/02/27 03:38:51;;;;;;;2.78;2.03;;;;;;;;;;10063132;28;20049;-74
2024/02/27 03:43:46;;;;;;;2.35;2.15;;;;;;;;;;10063535;28;20137;-74
2024/02/27 03:48:39;;;;;;;2.80;2.22;;;;;;;;;;10055743;28;20057;-73
2024/02/27 03:53:34;;;;;;;2.20;2.00;;;;;;;;;;10063615;28;20084;-74
2024/02/27 03:58:29;;;;;;;1.73;1.63;;;;;;;;;;10063209;28;20128;-74
2024/02/27 04:03:23;;;;;;;1.95;1.85;;;;;;;;;;10060168;28;20092;-74
2024/02/27 04:08:17;;;;;;;1.90;1.60;;;;;;;;;;10056813;28;20051;-74
2024/02/27 04:13:11;;;;;;;1.60;1.52;;;;;;;;;;10063044;28;20042;-74
2024/02/27 04:18:06;;;;;;;1.55;1.48;;;;;;;;;;10055267;28;20099;-74
2024/02/27 04:23:01;;;;;;;2.45;1.60;;;;;;;;;;10062944;28;20144;-76
2024/02/27 04:27:54;;;;;;;3.58;2.13;;;;;;;;;;10057390;28;20438;-75
2024/02/27 04:32:49;;;;;;;1.90;1.65;;;;;;;;;;10062574;28;20107;-75
2024/02/27 04:37:44;;;;;;;1.95;1.85;;;;;;;;;;10051090;28;20069;-75
2024/02/27 04:42:38;;;;;;;1.88;1.60;;;;;;;;;;10062177;28;20414;-75
2024/02/27 04:47:32;;;;;;;1.48;1.38;;;;;;;;;;10052261;28;20481;-76
2024/02/27 04:52:26;;;;;;;1.45;1.35;;;;;;;;;;10062276;28;20520;-76
2024/02/27 04:57:20;;;;;;;1.60;1.50;;;;;;;;;;10052828;28;20518;-76
2024/02/27 05:02:13;;;;;;;1.70;1.60;;;;;;;;;;10063056;28;20092;-75
2024/02/27 05:07:07;;;;;;;1.65;1.55;;;;;;;;;;10060123;28;20046;-75
2024/02/27 05:12:03;;;;;;;2.20;2.10;;;;;;;;;;10061794;28;20052;-75
2024/02/27 05:16:57;;;;;;;1.60;1.50;;;;;;;;;;10067032;28;20061;-74
2024/02/27 05:21:52;;;;;;;1.20;1.20;;;;;;;;;;10068838;28;20111;-75
2024/02/27 05:26:46;;;;;;;1.92;1.73;;;;;;;;;;10068717;28;20501;-76
2024/02/27 05:31:41;;;;;;;7.45;6.85;;;;;;;;;;10062347;28;20057;-75
2024/02/27 05:36:35;;;;;;;7.55;6.97;;;;;;;;;;10068454;28;20532;-75
2024/02/27 05:41:29;;;;;;;18.38;16.73;;;;;;;;;;10066008;28;20125;-74
2024/02/27 05:46:23;;;;;;;9.77;8.60;;;;;;;;;;10056849;28;20504;-77
2024/02/27 05:51:20;;;;;;;2.60;2.40;;;;;;;;;;10068028;28;20049;-75
2024/02/27 05:56:16;;;;;;;4.43;4.05;;;;;;;;;;10061270;28;20054;-75
2024/02/27 06:01:11;;;;;;;6.95;5.85;;;;;;;;;;10066899;28;20055;-76
2024/02/27 06:06:06;;;;;;;6.13;1.90;;;;;;;;;;10059841;28;20383;-76
2024/02/27 06:11:00;;;;;;;30.60;27.45;;;;;;;;;;10066118;28;20056;-77
2024/02/27 06:15:55;;;;;;;8.55;7.70;;;;;;;;;;10067283;28;20096;-77
2024/02/27 06:26:01;;;;;;;1.50;1.40;;;;;;;;;;10058938;28;20053;-77
2024/02/27 06:30:56;;;;;;;2.20;2.00;;;;;;;;;;10066925;28;20042;-76
2024/02/27 06:35:50;;;;;;;2.90;2.70;;;;;;;;;;10066068;28;20057;-78
2024/02/27 06:40:45;;;;;;;2.75;2.55;;;;;;;;;;10064814;28;20124;-77
2024/02/27 06:45:39;;;;;;;3.20;2.90;;;;;;;;;;10056058;28;20120;-77
2024/02/27 06:50:34;;;;;;;5.72;3.40;;;;;;;;;;10048250;28;20029;-77
2024/02/27 06:55:27;;;;;;;7.60;5.05;;;;;;;;;;10047236;28;20107;-76
2024/02/27 07:00:22;;;;;;;12.52;9.48;;;;;;;;;;10049086;28;20069;-78
2024/02/27 07:05:16;;;;;;;5.65;4.00;;;;;;;;;;10055599;28;20064;-77
2024/02/27 07:10:12;;;;;;;6.18;5.57;;;;;;;;;;10061154;28;20056;-76
2024/02/27 07:15:08;;;;;;;24.15;12.68;;;;;;;;;;10060176;28;20050;-77
2024/02/27 07:20:03;;;;;;;13.05;10.98;;;;;;;;;;10063232;28;20535;-78
2024/02/27 07:24:58;;;;;;;2.38;2.17;;;;;;;;;;10063848;28;20420;-77
2024/02/27 07:29:52;;;;;;;1.20;1.20;;;;;;;;;;10062228;28;20166;-77
2024/02/27 07:34:46;;;;;;;1.23;1.20;;;;;;;;;;10061712;28;20049;-76
2024/02/27 07:39:41;;;;;;;6.50;5.90;;;;;;;;;;10062660;28;20049;-77
2024/02/27 07:44:35;;;;;;;1.73;1.63;;;;;;;;;;10063621;28;20042;-77
2024/02/27 07:49:30;;;;;;;2.65;2.45;;;;;;;;;;10063802;28;20052;-77
2024/02/27 07:54:24;;;;;;;4.43;2.00;;;;;;;;;;10062612;28;20103;-78
2024/02/27 07:59:18;;;;;;;2.42;2.20;;;;;;;;;;10063487;28;20053;-76
2024/02/27 08:04:12;;;;;;;4.10;3.65;;;;;;;;;;10063425;28;20146;-76
2024/02/27 08:09:06;;;;;;;5.50;3.42;;;;;;;;;;10063151;28;20136;-76
2024/02/27 08:14:01;;;;;;;3.30;2.97;;;;;;;;;;10062074;28;20132;-76
2024/02/27 08:18:54;;;;;;;3.70;2.20;;;;;;;;;;10062061;28;20049;-77
2024/02/27 08:23:48;;;;;;;3.30;3.00;;;;;;;;;;10063386;28;21611;-77
2024/02/27 08:28:43;;;;;;;2.92;2.45;;;;;;;;;;10063240;28;20133;-77
2024/02/27 08:33:37;;;;;;;3.85;3.30;;;;;;;;;;10063345;28;20057;-77
2024/02/27 08:38:32;;;;;;;3.85;3.50;;;;;;;;;;10063006;28;20061;-77
2024/02/27 08:43:26;;;;;;;3.15;2.85;;;;;;;;;;10063274;28;20041;-78
2024/02/27 08:48:19;;;;;;;5.70;3.67;;;;;;;;;;10064381;28;20064;-78
2024/02/27 08:53:14;;;;;;;5.72;4.78;;;;;;;;;;10070012;28;20477;-78
2024/02/27 08:58:08;;;;;;;5.15;3.47;;;;;;;;;;10069894;28;20045;-78
2024/02/27 09:03:03;;;;;;;5.80;3.67;;;;;;;;;;10070438;28;20049;-78
2024/02/27 09:08:00;;;;;;;3.40;2.97;;;;;;;;;;10068141;28;20057;-77
2024/02/27 09:12:55;;;;;;;3.15;2.83;;;;;;;;;;10069388;28;20059;-77
2024/02/27 09:17:49;;;;;;;3.80;2.85;;;;;;;;;;10069771;28;20053;-78
2024/02/27 09:22:44;;;;;;;4.97;3.58;;;;;;;;;;10070108;28;20498;-77
2024/02/27 09:27:38;;;;;;;2.80;1.92;;;;;;;;;;10069031;28;20049;-77
2024/02/27 09:32:33;;;;;;;3.55;3.10;;;;;;;;;;10068950;28;20111;-76
2024/02/27 09:37:28;;;;;;;2.97;2.67;;;;;;;;;;10067643;28;20088;-77
2024/02/27 09:42:25;;;;;;;3.63;2.85;;;;;;;;;;10068418;28;20083;-76
2024/02/27 09:47:28;;;;;;;5.13;4.15;;;;;;;;;;10060561;28;20056;-76
2024/02/27 09:52:22;;;;;;;5.72;4.78;;;;;;;;;;10068152;28;20589;-77
2024/02/27 09:57:16;;;;;;;5.20;4.68;;;;;;;;;;10067921;28;20050;-77
2024/02/27 10:02:13;;;;;;;4.20;3.28;;;;;;;;;;10066832;28;20123;-77
2024/02/27 10:07:10;;;;;;;6.10;4.55;;;;;;;;;;10067967;28;20041;-77
2024/02/27 10:12:05;;;;;;;4.38;3.97;;;;;;;;;;10065795;28;20057;-76
2024/02/27 10:16:59;;;;;;;3.08;2.88;;;;;;;;;;10068379;28;20111;-76
2024/02/27 10:21:54;;;;;;;2.70;2.50;;;;;;;;;;10066697;28;20140;-77
2024/02/27 10:27:07;;;;;;;3.67;3.33;;;;;;;;;;10066674;28;20429;-77
2024/02/27 10:32:02;;;;;;;4.60;4.20;;;;;;;;;;10059836;28;20053;-77
2024/02/27 10:37:04;;;;;;;5.22;4.28;;;;;;;;;;10066086;28;20456;-76
2024/02/27 10:41:59;;;;;;;3.20;2.90;;;;;;;;;;10065839;28;20053;-77
2024/02/27 10:46:56;;;;;;;4.43;3.45;;;;;;;;;;10065658;28;20069;-76
2024/02/27 10:51:52;;;;;;;6.28;5.53;;;;;;;;;;10064042;28;20048;-77
2024/02/27 10:56:46;;;;;;;3.78;3.17;;;;;;;;;;10065279;28;20059;-77
2024/02/27 11:01:43;;;;;;;6.22;5.60;;;;;;;;;;10065699;28;20077;-77
2024/02/27 11:06:40;;;;;;;5.20;4.70;;;;;;;;;;10065144;28;20042;-77
2024/02/27 11:11:35;;;;;;;3.92;3.40;;;;;;;;;;10062945;28;20394;-76
2024/02/27 11:16:28;;;;;;;5.35;3.78;;;;;;;;;;10063376;28;20418;-76
2024/02/27 11:21:21;;;;;;;3.85;2.83;;;;;;;;;;10063892;28;20547;-76
2024/02/27 11:26:16;;;;;;;8.18;6.35;;;;;;;;;;10063574;28;20690;-76
2024/02/27 11:31:09;;;;;;;7.65;6.88;;;;;;;;;;10064453;28;20054;-77
2024/02/27 11:36:02;;;;;;;10.10;7.60;;;;;;;;;;10062820;28;20107;-78
2024/02/27 11:40:57;;;;;;;5.55;4.45;;;;;;;;;;10064266;28;20710;-77
2024/02/27 11:45:53;;;;;;;5.03;4.53;;;;;;;;;;10064199;28;20053;-77
2024/02/27 11:50:47;;;;;;;6.35;5.43;;;;;;;;;;10063408;28;20076;-77
2024/02/27 11:55:41;;;;;;;6.80;5.47;;;;;;;;;;10063993;28;20512;-77
2024/02/27 12:00:35;;;;;;;7.82;6.13;;;;;;;;;;10063978;28;20080;-77
2024/02/27 12:05:29;;;;;;;19.85;15.73;;;;;;;;;;10062522;28;20041;-77
2024/02/27 12:10:25;;;;;;;10.27;7.13;;;;;;;;;;10063590;28;20045;-77
2024/02/27 12:15:20;;;;;;;9.95;7.03;;;;;;;;;;10063308;28;20103;-78
2024/02/27 12:20:14;;;;;;;4.65;4.22;;;;;;;;;;10063217;28;20440;-77
2024/02/27 12:25:08;;;;;;;4.65;4.03;;;;;;;;;;10066762;28;20073;-77
2024/02/27 12:30:10;;;;;;;4.60;4.13;;;;;;;;;;10071267;28;20080;-77
2024/02/27 12:35:06;;;;;;;10.40;9.40;;;;;;;;;;10071400;28;19928;-76
2024/02/27 12:40:00;;;;;;;10.30;9.40;;;;;;;;;;10071601;28;20041;-76
2024/02/27 12:44:54;;;;;;;14.35;12.98;;;;;;;;;;10069028;28;20069;-77
2024/02/27 12:49:47;;;;;;;8.23;7.53;;;;;;;;;;10070761;28;20124;-77
2024/02/27 12:54:41;;;;;;;10.10;9.10;;;;;;;;;;10071809;28;20521;-77
2024/02/27 12:59:34;;;;;;;7.07;6.38;;;;;;;;;;10069674;28;20052;-77
2024/02/27 13:04:34;;;;;;;6.78;5.97;;;;;;;;;;10068254;28;20068;-77
2024/02/27 13:09:29;;;;;;;8.48;7.63;;;;;;;;;;10069837;28;20103;-77
2024/02/27 13:14:23;;;;;;;8.68;7.75;;;;;;;;;;10069128;28;20137;-77
2024/02/27 13:19:16;;;;;;;11.50;10.40;;;;;;;;;;10068994;28;20054;-77
2024/02/27 13:24:10;;;;;;;15.23;13.63;;;;;;;;;;10068671;28;20099;-77
2024/02/27 13:29:04;;;;;;;13.95;12.52;;;;;;;;;;10068806;28;20148;-77
2024/02/27 13:33:58;;;;;;;14.55;12.50;;;;;;;;;;10060256;28;20568;-77
2024/02/27 13:38:52;;;;;;;11.57;10.00;;;;;;;;;;10063735;28;20456;-77
2024/02/27 13:43:46;;;;;;;9.77;8.77;;;;;;;;;;10057804;28;20042;-76
2024/02/27 13:48:40;;;;;;;11.38;10.27;;;;;;;;;;10058047;28;20053;-78
2024/02/27 13:53:34;;;;;;;14.00;12.20;;;;;;;;;;10058575;28;20486;-76
2024/02/27 13:58:28;;;;;;;13.50;12.07;;;;;;;;;;10065694;28;20045;-76
2024/02/27 14:03:22;;;;;;;14.63;12.45;;;;;;;;;;10066842;28;20057;-76
2024/02/27 14:08:17;;;;;;;13.73;12.23;;;;;;;;;;10068029;28;20057;-77
2024/02/27 14:13:11;;;;;;;15.10;13.55;;;;;;;;;;10065907;28;20164;-77
2024/02/27 14:18:05;;;;;;;16.20;12.77;;;;;;;;;;10066528;28;20046;-76
2024/02/27 14:23:00;;;;;;;15.88;13.82;;;;;;;;;;10066969;28;20066;-76
2024/02/27 14:27:53;;;;;;;16.75;14.35;;;;;;;;;;10066371;28;20476;-76
2024/02/27 14:32:48;;;;;;;18.15;16.25;;;;;;;;;;10065027;28;20050;-76
2024/02/27 14:37:42;;;;;;;17.75;15.82;;;;;;;;;;10067258;28;20055;-77
2024/02/27 14:42:36;;;;;;;18.33;15.23;;;;;;;;;;10064580;28;20060;-77
2024/02/27 14:47:31;;;;;;;19.13;15.77;;;;;;;;;;10066162;28;20075;-76
2024/02/27 14:52:25;;;;;;;24.40;20.60;;;;;;;;;;10065514;28;20045;-77
2024/02/27 14:57:19;;;;;;;26.45;20.25;;;;;;;;;;10064945;28;20111;-77
2024/02/27 15:02:15;;;;;;;25.02;18.67;;;;;;;;;;10064076;28;20050;-76
2024/02/27 15:07:09;;;;;;;18.85;16.85;;;;;;;;;;10058896;28;20095;-77
2024/02/27 15:12:08;;;;;;;20.75;17.05;;;;;;;;;;10064341;28;20452;-76
2024/02/27 15:17:02;;;;;;;22.77;20.13;;;;;;;;;;10060320;28;20480;-76
2024/02/27 15:21:56;;;;;;;21.40;18.27;;;;;;;;;;10060464;28;20069;-76
2024/02/27 15:26:51;;;;;;;29.67;26.58;;;;;;;;;;10063473;28;20046;-76
2024/02/27 15:31:45;;;;;;;27.50;20.80;;;;;;;;;;10056732;28;20120;-75
2024/02/27 15:36:40;;;;;;;28.10;21.30;;;;;;;;;;10054280;28;20053;-76
2024/02/27 15:41:40;;;;;;;27.92;18.63;;;;;;;;;;10056894;28;20084;-76
2024/02/27 15:46:34;;;;;;;26.88;17.67;;;;;;;;;;10060800;28;20065;-77
2024/02/27 15:51:30;;;;;;;29.20;20.83;;;;;;;;;;10060965;28;20457;-78
2024/02/27 15:56:23;;;;;;;30.92;19.48;;;;;;;;;;10060899;28;20049;-76
2024/02/27 16:01:18;;;;;;;28.20;20.55;;;;;;;;;;10057842;28;20089;-77
2024/02/27 16:06:16;;;;;;;29.88;21.05;;;;;;;;;;10061566;28;20050;-75
2024/02/27 16:11:10;;;;;;;39.00;24.37;;;;;;;;;;10057903;28;20045;-77
2024/02/27 16:16:05;;;;;;;33.42;21.38;;;;;;;;;;10061675;28;20041;-77
2024/02/27 16:21:00;;;;;;;30.48;21.67;;;;;;;;;;10033340;28;20081;-76
2024/02/27 16:25:53;;;;;;;49.65;22.45;;;;;;;;;;10039322;28;20050;-76
2024/02/27 16:30:47;;;;;;;35.75;23.42;;;;;;;;;;10034459;28;20054;-76
2024/02/27 16:35:41;;;;;;;49.00;27.98;;;;;;;;;;10047046;28;20049;-77
2024/02/27 16:40:35;;;;;;;64.40;34.45;;;;;;;;;;10059914;28;20107;-75
2024/02/27 16:45:29;;;;;;;57.97;34.53;;;;;;;;;;10052695;28;20064;-76
2024/02/27 16:50:23;;;;;;;67.57;35.50;;;;;;;;;;10059872;28;20061;-75
2024/02/27 16:55:17;;;;;;;38.47;24.63;;;;;;;;;;10053561;28;20056;-75
2024/02/27 17:00:12;;;;;;;52.97;27.88;;;;;;;;;;10056327;28;20046;-76
2024/02/27 17:05:08;;;;;;;51.72;26.27;;;;;;;;;;10059331;28;20170;-75
2024/02/27 17:10:01;;;;;;;40.90;25.27;;;;;;;;;;10060055;28;20049;-75
2024/02/27 17:14:56;;;;;;;67.95;32.85;;;;;;;;;;10061233;28;20112;-76
2024/02/27 17:19:50;;;;;;;69.38;33.80;;;;;;;;;;10068080;28;20429;-76
2024/02/27 17:24:43;;;;;;;58.42;34.33;;;;;;;;;;10064604;28;20461;-75
2024/02/27 17:29:38;;;;;;;129.38;40.65;;;;;;;;;;10063614;28;20048;-75
2024/02/27 17:34:32;;;;;;;230.27;48.90;;;;;;;;;;10065728;28;20056;-76
2024/02/27 17:39:27;;;;;;;151.65;41.10;;;;;;;;;;10066939;28;20084;-75
2024/02/27 17:44:23;;;;;;;115.40;39.90;;;;;;;;;;10065005;28;20110;-75
2024/02/27 17:49:17;;;;;;;174.88;47.35;;;;;;;;;;10068022;28;20049;-75
2024/02/27 17:54:11;;;;;;;93.85;45.60;;;;;;;;;;10067247;28;20045;-75
2024/02/27 17:59:05;;;;;;;117.15;45.90;;;;;;;;;;10062602;28;20478;-75
2024/02/27 18:04:00;;;;;;;201.98;52.67;;;;;;;;;;10060565;28;20053;-75
2024/02/27 18:08:56;;;;;;;264.90;53.22;;;;;;;;;;10063717;28;20049;-74
2024/02/27 18:13:50;;;;;;;275.70;57.92;;;;;;;;;;10057095;28;20137;-75
2024/02/27 18:18:44;;;;;;;225.98;53.42;;;;;;;;;;10062052;28;20053;-75
2024/02/27 18:23:38;;;;;;;225.13;52.78;;;;;;;;;;10059931;28;20080;-75
2024/02/27 18:28:33;;;;;;;162.10;54.42;;;;;;;;;;10054145;28;20053;-75
2024/02/27 18:33:28;;;;;;;119.07;44.63;;;;;;;;;;10063667;28;20101;-74
2024/02/27 18:38:24;;;;;;;118.22;45.60;;;;;;;;;;10061838;28;20056;-75
2024/02/27 18:43:19;;;;;;;104.47;37.22;;;;;;;;;;10057573;28;20595;-74
2024/02/27 18:48:13;;;;;;;167.52;41.65;;;;;;;;;;10059986;28;20053;-77
2024/02/27 18:53:08;;;;;;;135.30;36.47;;;;;;;;;;10058695;28;20053;-74
2024/02/27 18:58:05;;;;;;;111.45;36.83;;;;;;;;;;10052597;28;20045;-75
2024/02/27 19:03:00;;;;;;;130.55;37.60;;;;;;;;;;10062747;28;20136;-75
2024/02/27 19:07:55;;;;;;;80.60;34.83;;;;;;;;;;10059716;28;20129;-74
2024/02/27 19:12:49;;;;;;;88.47;40.40;;;;;;;;;;10060943;28;20497;-75
2024/02/27 19:17:44;;;;;;;109.32;51.30;;;;;;;;;;10059543;28;20421;-75
2024/02/27 19:22:38;;;;;;;69.30;32.95;;;;;;;;;;10063685;28;20131;-75
2024/02/27 19:27:34;;;;;;;57.38;27.65;;;;;;;;;;10057478;28;20592;-75
2024/02/27 19:32:28;;;;;;;86.40;42.50;;;;;;;;;;10062725;28;20053;-76
2024/02/27 19:37:22;;;;;;;116.50;39.25;;;;;;;;;;10053237;28;20465;-75
2024/02/27 19:42:16;;;;;;;119.43;40.85;;;;;;;;;;10066843;28;20493;-75
2024/02/27 19:47:10;;;;;;;150.15;42.10;;;;;;;;;;10059315;28;20057;-75
2024/02/27 19:52:05;;;;;;;101.18;33.53;;;;;;;;;;10062909;28;20409;-75
2024/02/27 19:56:59;;;;;;;105.38;32.38;;;;;;;;;;10062836;28;20084;-74
2024/02/27 20:01:53;;;;;;;84.70;31.95;;;;;;;;;;10059323;28;20068;-74
2024/02/27 20:06:47;;;;;;;70.88;29.88;;;;;;;;;;10054478;28;20050;-75
2024/02/27 20:11:44;;;;;;;113.30;31.02;;;;;;;;;;10063850;28;20490;-76
2024/02/27 20:16:38;;;;;;;186.50;38.47;;;;;;;;;;10062804;28;20045;-75
2024/02/27 20:21:31;;;;;;;61.75;28.17;;;;;;;;;;10058107;28;20079;-75
2024/02/27 20:26:26;;;;;;;96.82;37.67;;;;;;;;;;10055011;28;20131;-74
2024/02/27 20:31:20;;;;;;;78.05;33.00;;;;;;;;;;10048358;28;20124;-74
2024/02/27 20:36:16;;;;;;;109.05;30.50;;;;;;;;;;10049909;28;20045;-73
2024/02/27 20:41:10;;;;;;;108.30;30.25;;;;;;;;;;10056675;28;20073;-76
2024/02/27 20:46:04;;;;;;;78.85;28.33;;;;;;;;;;10061268;28;20049;-75
2024/02/27 20:50:59;;;;;;;118.75;28.67;;;;;;;;;;10065120;28;20080;-72
2024/02/27 20:55:54;;;;;;;45.42;23.35;;;;;;;;;;10064229;28;20053;-73
2024/02/27 21:00:48;;;;;;;30.58;20.05;;;;;;;;;;10064352;28;20064;-74
2024/02/27 21:05:44;;;;;;;63.10;25.85;;;;;;;;;;10066880;28;20041;-75
2024/02/27 21:10:41;;;;;;;63.88;27.98;;;;;;;;;;10068206;28;20045;-78
2024/02/27 21:15:34;;;;;;;110.95;36.20;;;;;;;;;;10066385;28;20050;-74
2024/02/27 21:20:28;;;;;;;154.70;38.33;;;;;;;;;;10049938;28;20060;-76
2024/02/27 21:25:23;;;;;;;166.77;40.65;;;;;;;;;;10059443;28;20468;-74
2024/02/27 21:30:17;;;;;;;152.70;47.40;;;;;;;;;;10054217;28;20056;-76
2024/02/27 21:35:11;;;;;;;69.03;33.47;;;;;;;;;;10070720;28;20046;-75
2024/02/27 21:40:10;;;;;;;77.38;34.25;;;;;;;;;;10055905;28;20429;-75
2024/02/27 21:45:06;;;;;;;42.08;23.70;;;;;;;;;;10064431;28;20056;-76
2024/02/27 21:50:05;;;;;;;37.85;21.65;;;;;;;;;;10050182;28;20050;-74
2024/02/27 21:54:59;;;;;;;47.55;21.23;;;;;;;;;;10070075;28;20055;-75
2024/02/27 21:59:52;;;;;;;52.47;23.42;;;;;;;;;;10056171;28;20093;-75
2024/02/27 22:04:46;;;;;;;67.22;24.73;;;;;;;;;;10069096;28;20049;-75
2024/02/27 22:09:40;;;;;;;55.33;21.35;;;;;;;;;;10056337;28;20061;-75
2024/02/27 22:14:33;;;;;;;45.17;22.13;;;;;;;;;;10069701;28;20083;-74
2024/02/27 22:19:28;;;;;;;45.53;23.27;;;;;;;;;;10055379;28;20046;-76
2024/02/27 22:24:24;;;;;;;61.10;25.45;;;;;;;;;;10069417;28;20107;-76
2024/02/27 22:29:19;;;;;;;89.45;33.38;;;;;;;;;;10064857;28;20493;-74
2024/02/27 22:34:12;;;;;;;134.27;34.75;;;;;;;;;;10061196;28;20077;-75
2024/02/27 22:39:06;;;;;;;149.10;38.38;;;;;;;;;;10064022;28;20053;-76
2024/02/27 22:44:01;;;;;;;163.35;37.72;;;;;;;;;;10064952;28;20099;-76
2024/02/27 22:48:56;;;;;;;120.38;31.70;;;;;;;;;;10062856;28;20099;-75
2024/02/27 22:53:51;;;;;;;59.20;33.72;;;;;;;;;;10066710;28;20053;-75
2024/02/27 22:58:45;;;;;;;91.72;40.65;;;;;;;;;;10068214;28;20049;-75
2024/02/27 23:03:39;;;;;;;84.80;37.22;;;;;;;;;;10067903;28;20041;-76
2024/02/27 23:08:33;;;;;;;101.03;37.63;;;;;;;;;;10067815;28;20087;-76
2024/02/27 23:13:28;;;;;;;84.70;38.55;;;;;;;;;;10067471;28;20060;-76
2024/02/27 23:18:23;;;;;;;208.48;43.53;;;;;;;;;;10067436;28;20056;-76
2024/02/27 23:23:17;;;;;;;250.68;49.70;;;;;;;;;;10067263;28;20136;-76
2024/02/27 23:28:11;;;;;;;95.65;40.17;;;;;;;;;;10063557;28;20485;-76
2024/02/27 23:33:05;;;;;;;90.75;40.17;;;;;;;;;;10060727;28;20049;-75
2024/02/27 23:38:02;;;;;;;126.72;41.75;;;;;;;;;;10056039;28;20132;-76
2024/02/27 23:42:56;;;;;;;89.00;35.60;;;;;;;;;;10060973;28;20494;-75
2024/02/27 23:47:50;;;;;;;58.72;32.80;;;;;;;;;;10062293;28;20069;-75
2024/02/27 23:52:45;;;;;;;113.75;36.17;;;;;;;;;;10063907;28;20045;-76
2024/02/27 23:57:39;;;;;;;50.92;32.10;;;;;;;;;;10063494;28;20053;-75
